Time;durP1;ratioP1;P1;durP2;ratioP2;P2;SDS_P1;SDS_P2;PMS_P1;PMS_P2;Temp;Humidity;BMP_temperature;BMP_pressure;BME280_temperature;BME280_humidity;BME280_pressure;Samples;Min_cycle;Max_cycle;Signal;HPM_P1;HPM_P2
2023/05/07 00:00:10;;;;;;;6.95;3.88;;;16.90;97.40;;;;;;5056170;28;20035;-87
2023/05/07 00:02:37;;;;;;;8.57;4.30;;;16.90;97.30;;;;;;5056528;28;20081;-86
2023/05/07 00:05:03;;;;;;;8.05;4.43;;;16.90;97.30;;;;;;5056070;28;20396;-87
2023/05/07 00:07:29;;;;;;;7.95;4.35;;;16.90;97.30;;;;;;5072524;28;20021;-87
2023/05/07 00:09:55;;;;;;;7.13;4.30;;;16.80;97.20;;;;;;5073751;28;20700;-86
2023/05/07 00:12:20;;;;;;;7.93;4.40;;;16.80;97.20;;;;;;5072580;28;20040;-86
2023/05/07 00:14:46;;;;;;;6.25;3.78;;;16.80;97.20;;;;;;5072494;28;20043;-85
2023/05/07 00:17:12;;;;;;;6.45;4.05;;;16.80;97.20;;;;;;5073428;28;20025;-87
2023/05/07 00:19:37;;;;;;;6.97;4.40;;;16.70;97.20;;;;;;5072076;28;20429;-86
2023/05/07 00:22:03;;;;;;;6.85;3.80;;;16.70;97.20;;;;;;5072683;28;20385;-86
2023/05/07 00:24:28;;;;;;;8.60;4.55;;;16.70;97.20;;;;;;5073660;28;20542;-87
2023/05/07 00:26:54;;;;;;;8.68;4.32;;;16.70;97.20;;;;;;5072356;28;20036;-84
2023/05/07 00:29:20;;;;;;;7.60;4.53;;;16.70;97.30;;;;;;5072372;28;20081;-85
2023/05/07 00:31:45;;;;;;;9.35;5.28;;;16.70;97.30;;;;;;5072367;28;20037;-86
2023/05/07 00:34:11;;;;;;;8.02;4.22;;;16.60;97.30;;;;;;5072573;28;20107;-86
2023/05/07 00:36:36;;;;;;;9.73;5.10;;;16.60;97.30;;;;;;5055491;28;20029;-87
2023/05/07 00:39:03;;;;;;;7.80;4.63;;;16.60;97.30;;;;;;5055498;28;20060;-86
2023/05/07 00:41:30;;;;;;;9.95;5.75;;;16.60;97.30;;;;;;5072007;28;20079;-86
2023/05/07 00:43:56;;;;;;;9.77;4.85;;;16.60;97.30;;;;;;5073288;28;20063;-86
2023/05/07 00:46:23;;;;;;;8.52;5.22;;;16.60;97.30;;;;;;5072393;28;20465;-86
2023/05/07 00:48:50;;;;;;;8.52;5.00;;;16.50;97.30;;;;;;5076114;28;20075;-86
2023/05/07 00:51:17;;;;;;;8.88;5.15;;;16.50;97.30;;;;;;5073581;28;20025;-86
2023/05/07 00:53:43;;;;;;;10.38;5.40;;;16.50;97.30;;;;;;5055627;28;20044;-86
2023/05/07 00:56:09;;;;;;;10.20;5.32;;;16.50;97.30;;;;;;5055412;28;20032;-86
2023/05/07 00:58:35;;;;;;;9.00;5.47;;;16.50;97.60;;;;;;5073325;28;20477;-86
2023/05/07 01:01:02;;;;;;;8.75;5.57;;;16.40;97.40;;;;;;5072184;28;20043;-86
2023/05/07 01:03:27;;;;;;;10.07;5.63;;;16.40;97.80;;;;;;5071710;28;20041;-86
2023/05/07 01:05:55;;;;;;;9.20;5.47;;;16.30;97.50;;;;;;5073124;28;20150;-85
2023/05/07 01:08:22;;;;;;;8.52;5.53;;;16.30;97.60;;;;;;5071954;28;20063;-86
2023/05/07 01:10:48;;;;;;;10.13;5.45;;;16.30;97.70;;;;;;5073204;28;20095;-86
2023/05/07 01:13:14;;;;;;;8.45;5.55;;;16.30;97.90;;;;;;5073040;28;20036;-86
2023/05/07 01:15:41;;;;;;;9.60;6.32;;;16.30;97.80;;;;;;5071866;28;20111;-87
2023/05/07 01:18:07;;;;;;;6.95;5.20;;;16.30;97.90;;;;;;5073193;28;20038;-86
2023/05/07 01:20:33;;;;;;;11.23;5.47;;;16.30;97.90;;;;;;5056897;28;20078;-85
2023/05/07 01:23:00;;;;;;;11.00;6.15;;;16.30;98.00;;;;;;5055100;28;20037;-86
2023/05/07 01:25:27;;;;;;;9.60;5.63;;;16.30;98.10;;;;;;5071661;28;20032;-86
2023/05/07 01:27:52;;;;;;;10.65;6.47;;;16.30;98.20;;;;;;5071672;28;20040;-85
2023/05/07 01:30:20;;;;;;;13.73;6.47;;;16.30;98.20;;;;;;5056339;28;20021;-86
2023/05/07 01:33:01;;;;;;;10.77;5.75;;;16.30;98.30;;;;;;5059276;28;20021;-86
2023/05/07 01:35:40;;;;;;;8.95;6.32;;;16.30;98.30;;;;;;5075723;28;20033;-85
2023/05/07 01:38:06;;;;;;;9.82;6.13;;;16.30;98.20;;;;;;5076808;28;20103;-86
2023/05/07 01:40:33;;;;;;;12.20;7.03;;;16.30;98.50;;;;;;5075605;28;20033;-86
2023/05/07 01:43:00;;;;;;;8.60;6.65;;;16.30;98.20;;;;;;5076472;28;20041;-86
2023/05/07 01:45:26;;;;;;;10.32;6.57;;;16.30;98.30;;;;;;5058782;28;20119;-86
2023/05/07 01:47:53;;;;;;;11.40;7.15;;;16.30;98.30;;;;;;5076701;28;20036;-86
2023/05/07 01:50:20;;;;;;;9.63;6.80;;;16.30;98.30;;;;;;5075241;28;20024;-85
2023/05/07 01:52:46;;;;;;;11.73;7.20;;;16.30;98.40;;;;;;5058626;28;20473;-86
2023/05/07 01:55:12;;;;;;;12.50;7.07;;;16.30;98.40;;;;;;5076360;28;20032;-80
2023/05/07 01:57:38;;;;;;;11.63;6.82;;;16.30;98.50;;;;;;5075331;28;20542;-80
2023/05/07 02:00:06;;;;;;;10.80;7.07;;;16.30;98.50;;;;;;5058400;28;20400;-80
2023/05/07 02:02:33;;;;;;;11.48;6.50;;;16.30;98.50;;;;;;5058985;28;20091;-80
2023/05/07 02:05:00;;;;;;;10.30;7.22;;;16.30;98.50;;;;;;5076225;28;20029;-80
2023/05/07 02:07:26;;;;;;;10.18;6.47;;;16.30;98.60;;;;;;5076102;28;20469;-80
2023/05/07 02:09:52;;;;;;;9.65;7.10;;;16.30;98.60;;;;;;5074887;28;20051;-80
2023/05/07 02:12:17;;;;;;;9.25;6.88;;;16.30;98.60;;;;;;5074829;28;20067;-80
2023/05/07 02:14:43;;;;;;;11.48;7.53;;;16.30;98.60;;;;;;5074633;28;20037;-80
2023/05/07 02:17:08;;;;;;;11.30;7.50;;;16.30;98.70;;;;;;5058126;28;20400;-81
2023/05/07 02:19:35;;;;;;;11.60;7.68;;;16.30;98.70;;;;;;5074501;28;20199;-80
2023/05/07 02:22:00;;;;;;;13.07;6.78;;;16.30;98.80;;;;;;5071439;28;20036;-80
2023/05/07 02:24:26;;;;;;;9.73;7.15;;;16.30;98.80;;;;;;5055259;28;20491;-80
2023/05/07 02:26:51;;;;;;;9.65;7.20;;;16.30;98.90;;;;;;5053175;28;20456;-80
2023/05/07 02:29:17;;;;;;;11.52;7.75;;;16.20;98.90;;;;;;5070541;28;20082;-80
2023/05/07 02:31:43;;;;;;;10.70;7.72;;;16.30;98.90;;;;;;5071313;28;20397;-80
2023/05/07 02:34:08;;;;;;;11.38;8.68;;;16.20;98.90;;;;;;5054188;28;20527;-80
2023/05/07 02:36:34;;;;;;;12.45;8.50;;;16.20;99.00;;;;;;5070387;28;20029;-80
2023/05/07 02:39:00;;;;;;;12.07;8.30;;;16.20;99.10;;;;;;5071109;28;20429;-80
2023/05/07 02:41:27;;;;;;;10.68;8.10;;;16.20;99.20;;;;;;5070366;28;20130;-80
2023/05/07 02:43:53;;;;;;;13.52;9.02;;;16.20;99.20;;;;;;5070948;28;20041;-80
2023/05/07 02:46:19;;;;;;;11.85;8.38;;;16.20;99.20;;;;;;5054112;28;20033;-80
2023/05/07 02:48:44;;;;;;;13.43;9.52;;;16.20;99.20;;;;;;5071008;28;20048;-80
2023/05/07 02:51:10;;;;;;;13.68;9.88;;;16.20;99.10;;;;;;5054105;28;20040;-80
2023/05/07 02:53:36;;;;;;;12.45;9.82;;;16.20;99.10;;;;;;5055379;28;20033;-80
2023/05/07 02:56:02;;;;;;;12.27;9.95;;;16.20;99.10;;;;;;5070713;28;20033;-80
2023/05/07 02:58:28;;;;;;;16.27;10.35;;;16.20;99.10;;;;;;5053843;28;20029;-80
2023/05/07 03:00:56;;;;;;;12.35;9.60;;;16.20;99.10;;;;;;5070757;28;20043;-80
2023/05/07 03:03:22;;;;;;;14.10;9.88;;;16.20;99.10;;;;;;5070667;28;20032;-80
2023/05/07 03:05:48;;;;;;;16.83;11.27;;;16.10;99.00;;;;;;5053976;28;20381;-80
2023/05/07 03:08:13;;;;;;;14.02;11.35;;;16.10;99.10;;;;;;5053772;28;20029;-80
2023/05/07 03:10:39;;;;;;;14.82;10.93;;;16.20;99.10;;;;;;5070443;28;20555;-80
2023/05/07 03:13:05;;;;;;;16.05;11.68;;;16.20;99.10;;;;;;5053772;28;20477;-80
2023/05/07 03:15:31;;;;;;;15.45;10.63;;;16.20;99.10;;;;;;5053698;28;20166;-80
2023/05/07 03:17:56;;;;;;;15.60;10.95;;;16.20;99.10;;;;;;5053622;28;20415;-80
2023/05/07 03:20:25;;;;;;;13.65;10.45;;;16.10;99.00;;;;;;5053656;28;20556;-80
2023/05/07 03:22:50;;;;;;;14.93;11.38;;;16.20;99.00;;;;;;5053631;28;20029;-80
2023/05/07 03:25:16;;;;;;;14.85;10.75;;;16.10;99.00;;;;;;5070141;28;20091;-80
2023/05/07 03:27:42;;;;;;;14.70;10.73;;;16.10;99.00;;;;;;5053519;28;20033;-80
2023/05/07 03:30:08;;;;;;;12.20;9.25;;;16.10;99.00;;;;;;5054691;28;20032;-80
2023/05/07 03:32:35;;;;;;;14.95;12.13;;;16.10;99.10;;;;;;5069978;28;20025;-80
2023/05/07 03:35:00;;;;;;;16.27;11.45;;;16.10;99.10;;;;;;5054624;28;20079;-80
2023/05/07 03:37:26;;;;;;;13.95;10.70;;;16.10;99.10;;;;;;5069869;28;20032;-80
2023/05/07 03:39:52;;;;;;;17.30;10.98;;;16.10;99.10;;;;;;5069864;28;20128;-80
2023/05/07 03:42:17;;;;;;;16.30;10.63;;;16.00;99.10;;;;;;5069755;28;20077;-80
2023/05/07 03:44:43;;;;;;;16.17;10.05;;;16.00;99.10;;;;;;5053122;28;20481;-80
2023/05/07 03:47:10;;;;;;;14.40;10.23;;;16.00;99.20;;;;;;5069709;28;20100;-80
2023/05/07 03:49:35;;;;;;;13.77;10.82;;;16.00;99.20;;;;;;5053030;28;20393;-80
2023/05/07 03:52:01;;;;;;;17.70;10.77;;;16.00;99.20;;;;;;5053968;28;20025;-80
2023/05/07 03:54:27;;;;;;;14.48;11.48;;;16.00;99.30;;;;;;5052783;28;20036;-80
2023/05/07 03:56:52;;;;;;;12.57;10.25;;;16.00;99.30;;;;;;5069403;28;20420;-80
2023/05/07 03:59:18;;;;;;;14.38;10.65;;;16.00;99.30;;;;;;5054230;28;20477;-80
2023/05/07 04:01:44;;;;;;;14.30;10.60;;;16.00;99.40;;;;;;5069668;28;20033;-80
2023/05/07 04:04:10;;;;;;;15.45;10.93;;;16.00;99.40;;;;;;5069283;28;20496;-80
2023/05/07 04:06:35;;;;;;;15.63;11.07;;;16.00;99.40;;;;;;5052705;28;20025;-80
2023/05/07 04:09:01;;;;;;;14.32;10.57;;;16.00;99.50;;;;;;5052689;28;20121;-80
2023/05/07 04:11:27;;;;;;;14.20;10.27;;;16.00;99.50;;;;;;5052608;28;20052;-80
2023/05/07 04:13:52;;;;;;;14.77;10.20;;;16.00;99.60;;;;;;5069277;28;20037;-80
2023/05/07 04:16:18;;;;;;;15.13;10.38;;;16.00;99.60;;;;;;5069269;28;20128;-80
2023/05/07 04:18:44;;;;;;;14.55;11.25;;;16.00;99.60;;;;;;5052443;28;20499;-80
2023/05/07 04:21:17;;;;;;;16.65;10.82;;;16.00;99.60;;;;;;5052311;28;20124;-80
2023/05/07 04:23:43;;;;;;;13.40;9.82;;;16.00;99.70;;;;;;5053520;28;20041;-80
2023/05/07 04:26:08;;;;;;;13.60;10.80;;;16.00;99.70;;;;;;5052274;28;20025;-80
2023/05/07 04:28:36;;;;;;;12.35;10.40;;;16.00;99.90;;;;;;5069093;28;20109;-79
2023/05/07 04:31:02;;;;;;;12.38;9.38;;;16.00;99.80;;;;;;5053545;28;20025;-80
2023/05/07 04:33:27;;;;;;;13.40;9.55;;;16.00;99.90;;;;;;5069223;28;20033;-80
2023/05/07 04:35:53;;;;;;;14.68;10.27;;;16.00;99.90;;;;;;5052112;28;20076;-80
2023/05/07 04:38:18;;;;;;;12.23;9.38;;;16.00;99.90;;;;;;5068838;28;20037;-80
2023/05/07 04:40:46;;;;;;;16.70;11.05;;;16.00;99.90;;;;;;5052053;28;20029;-80
2023/05/07 04:43:11;;;;;;;15.10;10.30;;;16.00;99.90;;;;;;5068516;28;20053;-80
2023/05/07 04:45:37;;;;;;;14.75;11.88;;;15.90;99.90;;;;;;5068751;28;20389;-80
2023/05/07 04:48:03;;;;;;;14.93;11.77;;;16.00;99.90;;;;;;5053491;28;20021;-80
2023/05/07 04:50:30;;;;;;;16.40;11.77;;;16.00;99.90;;;;;;5068744;28;20029;-80
2023/05/07 04:52:55;;;;;;;15.45;12.25;;;16.00;99.90;;;;;;5051936;28;20480;-80
2023/05/07 04:55:21;;;;;;;15.00;11.43;;;16.00;99.90;;;;;;5068608;28;20036;-80
2023/05/07 04:57:47;;;;;;;16.10;11.65;;;16.00;99.90;;;;;;5074508;28;20036;-80
2023/05/07 05:00:16;;;;;;;15.35;11.10;;;16.00;99.90;;;;;;5066940;28;20041;-80
2023/05/07 05:02:42;;;;;;;16.10;11.43;;;16.00;99.90;;;;;;5054859;28;20028;-80
2023/05/07 05:05:08;;;;;;;14.43;11.27;;;16.00;99.90;;;;;;5070861;28;20039;-80
2023/05/07 05:07:33;;;;;;;15.00;11.35;;;16.00;99.90;;;;;;5035799;28;20060;-80
2023/05/07 05:09:59;;;;;;;15.25;10.77;;;16.00;99.90;;;;;;5050689;28;20487;-80
2023/05/07 05:12:25;;;;;;;13.20;10.70;;;16.00;99.90;;;;;;5049960;28;20029;-80
2023/05/07 05:14:51;;;;;;;13.50;10.77;;;16.00;99.90;;;;;;5068319;28;20120;-80
2023/05/07 05:17:16;;;;;;;13.60;10.40;;;16.00;99.90;;;;;;5051706;28;20114;-80
2023/05/07 05:19:42;;;;;;;12.43;10.07;;;16.00;99.90;;;;;;5068542;28;20389;-80
2023/05/07 05:22:07;;;;;;;15.32;10.50;;;16.10;99.90;;;;;;5068480;28;20037;-80
2023/05/07 05:24:33;;;;;;;12.80;10.32;;;16.10;99.90;;;;;;5068543;28;20487;-80
2023/05/07 05:27:02;;;;;;;11.73;9.75;;;16.10;99.90;;;;;;5051601;28;20082;-80
2023/05/07 05:29:27;;;;;;;14.88;10.85;;;16.10;99.90;;;;;;5052772;28;20477;-80
2023/05/07 05:31:53;;;;;;;12.23;10.52;;;16.10;99.90;;;;;;5051707;28;20025;-80
2023/05/07 05:34:21;;;;;;;13.30;9.95;;;16.20;99.90;;;;;;5068294;28;20033;-80
2023/05/07 05:36:47;;;;;;;13.20;10.25;;;16.20;99.90;;;;;;5051495;28;20462;-80
2023/05/07 05:39:13;;;;;;;13.55;10.40;;;16.20;99.90;;;;;;5051459;28;20053;-80
2023/05/07 05:41:39;;;;;;;14.00;10.23;;;16.20;99.90;;;;;;5051329;28;20044;-80
2023/05/07 05:44:05;;;;;;;14.18;10.18;;;16.20;99.90;;;;;;5051518;28;20036;-80
2023/05/07 05:46:31;;;;;;;12.00;9.88;;;16.30;99.90;;;;;;5068123;28;20032;-80
2023/05/07 05:48:56;;;;;;;12.60;10.00;;;16.30;99.90;;;;;;5051286;28;20029;-80
2023/05/07 05:51:23;;;;;;;14.57;10.05;;;16.30;99.90;;;;;;5051198;28;20025;-80
2023/05/07 05:53:48;;;;;;;13.27;10.13;;;16.30;99.90;;;;;;5051493;28;20086;-80
2023/05/07 05:56:15;;;;;;;14.85;10.52;;;16.30;99.90;;;;;;5051467;28;20029;-80
2023/05/07 05:58:41;;;;;;;12.57;9.82;;;16.30;99.90;;;;;;5051365;28;20120;-80
2023/05/07 06:01:07;;;;;;;13.98;10.00;;;16.40;99.90;;;;;;5052523;28;20116;-80
2023/05/07 06:03:32;;;;;;;14.15;9.52;;;16.40;99.90;;;;;;5051245;28;20055;-80
2023/05/07 06:05:59;;;;;;;14.23;10.95;;;16.40;99.90;;;;;;5051197;28;20025;-80
2023/05/07 06:08:25;;;;;;;12.32;10.07;;;16.50;99.90;;;;;;5051536;28;20025;-80
2023/05/07 06:10:51;;;;;;;11.68;9.50;;;16.50;99.90;;;;;;5051123;28;20111;-80
2023/05/07 06:13:17;;;;;;;12.65;9.65;;;16.50;99.90;;;;;;5051263;28;20556;-80
2023/05/07 06:15:43;;;;;;;13.30;10.10;;;16.50;99.90;;;;;;5051415;28;20033;-80
2023/05/07 06:18:08;;;;;;;12.23;9.60;;;16.60;99.90;;;;;;5071488;28;20041;-80
2023/05/07 06:20:34;;;;;;;12.43;9.80;;;16.50;99.90;;;;;;5071407;28;20065;-80
2023/05/07 06:22:59;;;;;;;11.30;9.52;;;16.60;99.90;;;;;;5071464;28;20033;-80
2023/05/07 06:25:25;;;;;;;13.68;9.77;;;16.60;99.90;;;;;;5054563;28;20029;-80
2023/05/07 06:27:51;;;;;;;12.50;10.27;;;16.60;99.90;;;;;;5071294;28;20037;-80
2023/05/07 06:30:16;;;;;;;11.65;9.75;;;16.60;99.90;;;;;;5054878;28;20029;-80
2023/05/07 06:32:42;;;;;;;13.48;9.80;;;16.60;99.90;;;;;;5054421;28;20033;-80
2023/05/07 06:35:08;;;;;;;12.48;9.88;;;16.70;99.90;;;;;;5055516;28;20106;-80
2023/05/07 06:37:34;;;;;;;13.13;9.60;;;16.70;99.90;;;;;;5070998;28;20521;-81
2023/05/07 06:39:59;;;;;;;12.35;9.23;;;16.80;99.90;;;;;;5071243;28;20099;-81
2023/05/07 06:42:26;;;;;;;12.10;9.70;;;16.80;99.90;;;;;;5064373;28;20072;-82
2023/05/07 06:44:52;;;;;;;13.05;9.43;;;16.80;99.90;;;;;;5057843;28;20060;-81
2023/05/07 06:47:17;;;;;;;10.48;8.68;;;16.80;99.90;;;;;;5057311;28;20031;-78
2023/05/07 06:49:43;;;;;;;11.77;9.80;;;16.90;99.90;;;;;;5074413;28;20032;-78
2023/05/07 06:52:09;;;;;;;14.32;10.32;;;16.90;99.90;;;;;;5075607;28;20423;-79
2023/05/07 06:54:34;;;;;;;11.27;8.95;;;16.90;99.90;;;;;;5069065;28;20401;-78
2023/05/07 06:57:00;;;;;;;13.05;9.77;;;17.00;99.90;;;;;;5054139;28;20029;-79
2023/05/07 06:59:26;;;;;;;11.40;8.82;;;17.00;99.90;;;;;;5053681;28;20082;-78
2023/05/07 07:01:51;;;;;;;11.45;9.30;;;17.00;99.90;;;;;;5053934;28;20037;-79
2023/05/07 07:04:17;;;;;;;12.88;9.45;;;17.10;99.90;;;;;;5054945;28;20024;-78
2023/05/07 07:06:43;;;;;;;12.18;9.07;;;17.20;99.90;;;;;;5053780;28;20124;-79
2023/05/07 07:09:08;;;;;;;10.95;8.95;;;17.20;99.90;;;;;;5053930;28;20061;-78
2023/05/07 07:11:34;;;;;;;13.30;10.55;;;17.20;99.90;;;;;;5053640;28;20032;-78
2023/05/07 07:14:00;;;;;;;13.02;10.13;;;17.30;99.90;;;;;;5037114;28;20537;-78
2023/05/07 07:16:26;;;;;;;13.30;10.30;;;17.30;99.90;;;;;;5053639;28;20087;-79
2023/05/07 07:18:51;;;;;;;11.77;10.27;;;17.30;99.90;;;;;;5054689;28;20044;-79
2023/05/07 07:21:17;;;;;;;12.70;10.32;;;17.30;99.90;;;;;;5053325;28;20098;-79
2023/05/07 07:23:42;;;;;;;13.82;10.90;;;17.40;99.90;;;;;;5036682;28;20437;-78
2023/05/07 07:26:08;;;;;;;15.35;11.93;;;17.40;99.90;;;;;;5053418;28;20430;-78
2023/05/07 07:28:34;;;;;;;14.00;10.82;;;17.40;99.90;;;;;;5054451;28;20051;-79
2023/05/07 07:30:59;;;;;;;14.27;11.25;;;17.40;99.90;;;;;;5054504;28;20127;-78
2023/05/07 07:33:25;;;;;;;15.20;12.02;;;17.50;99.90;;;;;;5036907;28;20477;-78
2023/05/07 07:35:51;;;;;;;14.80;12.43;;;17.50;99.90;;;;;;5054501;28;20029;-78
2023/05/07 07:38:16;;;;;;;13.80;11.88;;;17.50;99.90;;;;;;5053191;28;20037;-79
2023/05/07 07:40:43;;;;;;;15.60;12.27;;;17.50;99.90;;;;;;5054751;28;20025;-78
2023/05/07 07:43:09;;;;;;;15.65;12.25;;;17.50;99.90;;;;;;5054253;28;20070;-79
2023/05/07 07:45:34;;;;;;;13.45;11.88;;;17.60;99.90;;;;;;5053136;28;20075;-78
2023/05/07 07:48:00;;;;;;;16.70;13.45;;;17.70;99.80;;;;;;5052790;28;20083;-78
2023/05/07 07:50:26;;;;;;;15.27;12.45;;;17.70;99.70;;;;;;5052969;28;20059;-78
2023/05/07 07:52:52;;;;;;;18.17;12.65;;;17.70;99.70;;;;;;5053045;28;20040;-78
2023/05/07 07:55:22;;;;;;;17.80;12.70;;;17.80;99.60;;;;;;5052876;28;20028;-78
2023/05/07 07:57:48;;;;;;;16.02;12.25;;;17.80;99.60;;;;;;5036235;28;20420;-78
2023/05/07 08:00:15;;;;;;;14.95;11.80;;;17.90;99.60;;;;;;5053937;28;20469;-78
2023/05/07 08:02:41;;;;;;;15.15;11.85;;;18.00;99.60;;;;;;5036100;28;20021;-78
2023/05/07 08:05:07;;;;;;;14.65;11.30;;;18.00;99.60;;;;;;5053960;28;20029;-78
2023/05/07 08:07:32;;;;;;;16.77;11.98;;;18.10;99.50;;;;;;5053795;28;20022;-78
2023/05/07 08:09:58;;;;;;;14.93;11.77;;;18.20;99.50;;;;;;5053933;28;20381;-78
2023/05/07 08:12:24;;;;;;;15.50;12.05;;;18.30;99.50;;;;;;5053838;28;20474;-79
2023/05/07 08:14:50;;;;;;;17.10;13.18;;;18.30;99.40;;;;;;5053833;28;20078;-79
2023/05/07 08:17:16;;;;;;;15.10;11.95;;;18.30;99.20;;;;;;5052370;28;20021;-78
2023/05/07 08:19:42;;;;;;;13.60;11.35;;;18.40;99.20;;;;;;5052616;28;20086;-78
2023/05/07 08:22:09;;;;;;;13.48;10.40;;;18.40;99.00;;;;;;5053808;28;20028;-78
2023/05/07 08:24:35;;;;;;;14.32;11.77;;;18.50;99.00;;;;;;5053625;28;20359;-78
2023/05/07 08:27:01;;;;;;;14.40;11.95;;;18.60;98.90;;;;;;5052344;28;20067;-78
2023/05/07 08:29:26;;;;;;;15.20;11.63;;;18.70;98.90;;;;;;5052368;28;20072;-78
2023/05/07 08:31:52;;;;;;;14.90;11.88;;;18.80;98.80;;;;;;5052245;28;20029;-78
2023/05/07 08:34:17;;;;;;;14.48;11.07;;;18.90;98.70;;;;;;5053668;28;20040;-78
2023/05/07 08:36:46;;;;;;;15.35;11.40;;;19.00;98.50;;;;;;5053425;28;20112;-79
2023/05/07 08:39:12;;;;;;;12.95;10.05;;;19.00;98.30;;;;;;5053001;28;20481;-79
2023/05/07 08:41:38;;;;;;;14.70;11.85;;;19.10;98.10;;;;;;5052166;28;20056;-79
2023/05/07 08:44:08;;;;;;;13.50;10.80;;;19.10;97.90;;;;;;5053611;28;20041;-78
2023/05/07 08:46:34;;;;;;;12.63;10.50;;;19.20;97.70;;;;;;5068671;28;20553;-79
2023/05/07 08:49:00;;;;;;;14.30;10.88;;;19.20;97.50;;;;;;5052072;28;20108;-78
2023/05/07 08:51:26;;;;;;;14.18;11.55;;;19.30;97.30;;;;;;5051955;28;20017;-78
2023/05/07 08:53:52;;;;;;;14.68;11.82;;;19.30;97.20;;;;;;5052033;28;20095;-78
2023/05/07 08:56:20;;;;;;;12.18;10.57;;;19.40;97.00;;;;;;5053037;28;20092;-78
2023/05/07 08:58:46;;;;;;;13.48;11.18;;;19.50;96.80;;;;;;5053175;28;20040;-79
2023/05/07 09:01:16;;;;;;;13.88;11.43;;;19.40;96.50;;;;;;5051836;28;20036;-78
2023/05/07 09:03:45;;;;;;;13.98;11.70;;;19.50;96.50;;;;;;5051824;28;20035;-78
2023/05/07 09:06:11;;;;;;;14.65;10.93;;;19.60;96.50;;;;;;5053462;28;20028;-91
2023/05/07 09:08:37;;;;;;;14.95;10.73;;;19.70;96.40;;;;;;5035197;28;20032;-78
2023/05/07 09:11:03;;;;;;;12.63;9.73;;;19.80;96.30;;;;;;5051655;28;20041;-78
2023/05/07 09:13:29;;;;;;;14.23;10.27;;;19.90;96.10;;;;;;5052028;28;20090;-89
2023/05/07 09:15:55;;;;;;;13.82;10.10;;;20.10;95.90;;;;;;5053234;28;20029;-90
2023/05/07 09:18:21;;;;;;;13.82;10.45;;;20.10;95.50;;;;;;5053300;28;20485;-91
2023/05/07 09:20:47;;;;;;;12.30;10.13;;;20.30;95.10;;;;;;5052220;28;20021;-91
2023/05/07 09:23:13;;;;;;;12.10;9.57;;;20.40;94.70;;;;;;5052749;28;20389;-89
2023/05/07 09:25:45;;;;;;;13.65;10.40;;;20.50;94.50;;;;;;5053350;28;20064;-82
2023/05/07 09:28:10;;;;;;;15.50;10.13;;;20.70;94.00;;;;;;5052673;28;20024;-79
2023/05/07 09:30:36;;;;;;;14.15;8.85;;;20.80;93.70;;;;;;5051651;28;20033;-78
2023/05/07 09:33:03;;;;;;;13.77;9.30;;;20.80;93.50;;;;;;5052485;28;20021;-92
2023/05/07 09:35:30;;;;;;;14.73;9.38;;;21.00;93.30;;;;;;5051922;28;20014;-81
2023/05/07 09:38:00;;;;;;;12.60;9.30;;;21.10;93.10;;;;;;5051484;28;20056;-81
2023/05/07 09:40:29;;;;;;;15.07;9.00;;;21.30;92.80;;;;;;5051391;28;20021;-82
2023/05/07 09:42:55;;;;;;;11.75;8.90;;;21.40;92.40;;;;;;5034699;28;20128;-81
2023/05/07 09:45:27;;;;;;;10.48;8.50;;;21.50;92.20;;;;;;5034688;28;20124;-81
2023/05/07 09:47:58;;;;;;;10.43;8.40;;;21.60;91.80;;;;;;5051629;28;20068;-81
2023/05/07 09:50:42;;;;;;;11.23;8.32;;;21.80;91.50;;;;;;5035028;28;20036;-88
2023/05/07 09:53:10;;;;;;;9.63;7.35;;;21.90;90.90;;;;;;5056329;28;20028;-86
2023/05/07 09:55:37;;;;;;;11.77;7.60;;;22.10;90.60;;;;;;5055335;28;20013;-86
2023/05/07 09:58:06;;;;;;;10.90;7.63;;;22.20;90.20;;;;;;5038685;28;20044;-81
2023/05/07 10:00:32;;;;;;;8.88;7.05;;;22.30;89.80;;;;;;5055139;28;20029;-81
2023/05/07 10:03:00;;;;;;;10.70;7.88;;;22.40;89.10;;;;;;5038484;28;20112;-81
2023/05/07 10:05:26;;;;;;;11.40;8.07;;;22.60;88.40;;;;;;5054910;28;20431;-82
2023/05/07 10:07:53;;;;;;;11.88;8.40;;;22.70;87.30;;;;;;5056009;28;20116;-80
2023/05/07 10:10:19;;;;;;;15.10;7.88;;;22.80;86.40;;;;;;5054947;28;20025;-86
2023/05/07 10:12:46;;;;;;;11.60;7.63;;;22.90;85.70;;;;;;5054989;28;20539;-88
2023/05/07 10:15:12;;;;;;;9.57;7.68;;;23.00;85.00;;;;;;5055003;28;20477;-89
2023/05/07 10:17:39;;;;;;;10.48;7.18;;;23.20;84.10;;;;;;5054792;28;20067;-81
2023/05/07 10:20:06;;;;;;;9.85;7.38;;;23.30;83.20;;;;;;5038218;28;20028;-81
2023/05/07 10:22:39;;;;;;;8.57;7.10;;;23.40;82.20;;;;;;5053003;28;20421;-81
2023/05/07 10:25:14;;;;;;;13.98;7.75;;;23.60;81.80;;;;;;5073522;28;20082;-86
2023/05/07 10:27:41;;;;;;;9.90;6.65;;;23.80;81.50;;;;;;5073293;28;20105;-86
2023/05/07 10:30:49;;;;;;;9.43;6.70;;;24.10;81.10;;;;;;5056972;28;20032;-89
2023/05/07 10:33:18;;;;;;;7.70;6.18;;;24.60;79.60;;;;;;5075904;28;20503;-86
2023/05/07 10:35:46;;;;;;;9.35;6.50;;;25.20;79.20;;;;;;5074023;28;20025;-87
2023/05/07 10:38:12;;;;;;;8.95;5.88;;;25.50;77.30;;;;;;5075714;28;20017;-80
2023/05/07 10:40:38;;;;;;;7.97;5.28;;;25.80;76.70;;;;;;5074336;28;20197;-86
2023/05/07 10:43:05;;;;;;;7.32;4.80;;;26.30;76.10;;;;;;5075491;28;20568;-81
2023/05/07 10:45:32;;;;;;;8.80;5.03;;;26.70;75.30;;;;;;5074139;28;20090;-81
2023/05/07 10:48:14;;;;;;;5.65;4.57;;;27.30;74.10;;;;;;5075446;28;20020;-81
2023/05/07 10:50:41;;;;;;;6.80;5.15;;;27.70;71.50;;;;;;5074164;28;20557;-81
2023/05/07 10:53:19;;;;;;;5.65;4.25;;;28.20;71.20;;;;;;5057561;28;20346;-82
2023/05/07 10:55:47;;;;;;;6.10;3.92;;;28.60;69.00;;;;;;5074083;28;20029;-82
2023/05/07 10:58:25;;;;;;;8.07;4.32;;;29.10;68.40;;;;;;5073594;28;20020;-82
2023/05/07 11:01:01;;;;;;;5.05;3.83;;;29.40;66.20;;;;;;5071156;28;20032;-82
2023/05/07 11:03:28;;;;;;;6.90;4.95;;;29.60;64.10;;;;;;5054572;28;20037;-82
2023/05/07 11:06:13;;;;;;;5.40;3.90;;;29.40;62.00;;;;;;5071835;28;20548;-81
2023/05/07 11:09:05;;;;;;;6.95;4.90;;;29.20;61.30;;;;;;5071615;28;20070;-84
2023/05/07 11:11:47;;;;;;;7.82;5.03;;;28.80;60.60;;;;;;5069929;28;20075;-85
2023/05/07 11:14:34;;;;;;;7.77;5.60;;;28.60;60.30;;;;;;5056725;28;20033;-85
2023/05/07 11:17:03;;;;;;;7.35;5.05;;;28.40;59.30;;;;;;5059213;28;20461;-85
2023/05/07 11:19:49;;;;;;;10.43;5.15;;;28.10;59.80;;;;;;5074943;28;20035;-83
2023/05/07 11:22:35;;;;;;;6.85;5.43;;;27.90;60.10;;;;;;5074538;28;20496;-83
2023/05/07 11:25:05;;;;;;;6.05;4.88;;;27.80;60.30;;;;;;5073329;28;20063;-86
2023/05/07 11:27:32;;;;;;;8.32;5.68;;;27.70;60.30;;;;;;5055758;28;20053;-84
2023/05/07 11:30:03;;;;;;;9.38;5.90;;;27.50;60.10;;;;;;5072774;28;20020;-84
2023/05/07 11:32:32;;;;;;;7.85;5.18;;;27.30;60.00;;;;;;5074009;28;20024;-84
2023/05/07 11:34:59;;;;;;;7.85;5.68;;;27.20;60.60;;;;;;5073210;28;20072;-84
2023/05/07 11:37:28;;;;;;;7.00;5.38;;;27.00;60.70;;;;;;5074576;28;20020;-84
2023/05/07 11:40:05;;;;;;;9.02;6.47;;;26.90;60.90;;;;;;5074583;28;20020;-84
2023/05/07 11:42:31;;;;;;;7.05;5.43;;;26.70;61.00;;;;;;5074250;28;20048;-86
2023/05/07 11:44:58;;;;;;;7.85;5.00;;;26.50;61.10;;;;;;5074323;28;20107;-85
2023/05/07 11:47:24;;;;;;;7.80;6.00;;;26.40;61.30;;;;;;5072933;28;20051;-84
2023/05/07 11:49:52;;;;;;;8.85;5.95;;;26.20;61.50;;;;;;5073107;28;20120;-84
2023/05/07 11:52:19;;;;;;;8.50;6.68;;;26.10;61.60;;;;;;5074263;28;20016;-84
2023/05/07 11:54:52;;;;;;;8.15;5.70;;;26.00;61.70;;;;;;5072882;28;20036;-83
2023/05/07 11:57:18;;;;;;;;;;;25.90;62.10;;;;;;5072531;28;20017;-83
2023/05/07 11:59:44;;;;;;;8.07;5.18;;;25.80;62.40;;;;;;5073826;28;20257;-84
2023/05/07 12:02:10;;;;;;;9.82;6.47;;;25.80;62.50;;;;;;5072475;28;20490;-84
2023/05/07 12:04:40;;;;;;;8.85;5.72;;;25.70;62.60;;;;;;5055889;28;20037;-83
2023/05/07 12:07:26;;;;;;;8.13;5.40;;;25.70;62.90;;;;;;5056584;28;20021;-84
2023/05/07 12:09:53;;;;;;;9.60;6.18;;;25.60;63.00;;;;;;5072724;28;20079;-84
2023/05/07 12:12:18;;;;;;;8.10;6.35;;;25.50;63.00;;;;;;5055931;28;20020;-85
2023/05/07 12:14:45;;;;;;;9.23;6.28;;;25.40;63.10;;;;;;5055304;28;20476;-84
2023/05/07 12:17:13;;;;;;;11.60;6.70;;;25.30;63.40;;;;;;5072604;28;20025;-83
2023/05/07 12:19:41;;;;;;;8.38;6.00;;;25.20;64.00;;;;;;5072516;28;20031;-86
2023/05/07 12:22:08;;;;;;;8.80;6.25;;;25.30;64.50;;;;;;5072416;28;20039;-84
2023/05/07 12:24:45;;;;;;;9.98;5.95;;;25.20;65.00;;;;;;5055672;28;20488;-85
2023/05/07 12:27:11;;;;;;;7.90;5.63;;;25.20;65.90;;;;;;5072448;28;20070;-84
2023/05/07 12:29:38;;;;;;;8.48;6.40;;;25.10;66.10;;;;;;5072534;28;20024;-84
2023/05/07 12:32:06;;;;;;;7.95;5.55;;;25.10;66.40;;;;;;5055987;28;20017;-85
2023/05/07 12:34:32;;;;;;;9.30;6.88;;;25.00;67.50;;;;;;5073591;28;20025;-84